createdAt,value
2022-11-06T00:01:32.434Z,4.80
2022-11-06T00:03:59.227Z,4.40
2022-11-06T00:06:44.655Z,4.10
2022-11-06T00:09:13.472Z,4.00
2022-11-06T00:11:42.046Z,4.00
2022-11-06T00:14:09.277Z,4.00
2022-11-06T00:16:38.566Z,4.20
2022-11-06T00:19:05.960Z,4.10
2022-11-06T00:21:33.133Z,4.10
2022-11-06T00:24:01.361Z,4.00
2022-11-06T00:26:29.933Z,4.00
2022-11-06T00:28:57.443Z,3.90
2022-11-06T00:31:29.519Z,3.70
2022-11-06T00:33:58.216Z,3.60
2022-11-06T00:36:26.391Z,3.50
2022-11-06T00:38:57.607Z,3.60
2022-11-06T00:41:25.151Z,3.80
2022-11-06T00:43:58.081Z,3.60
2022-11-06T00:46:25.550Z,3.50
2022-11-06T00:48:53.692Z,3.40
2022-11-06T00:51:27.502Z,3.40
2022-11-06T00:53:56.336Z,3.70
2022-11-06T00:56:24.130Z,3.80
2022-11-06T00:58:51.278Z,3.70
2022-11-06T01:01:21.366Z,3.50
2022-11-06T01:03:52.820Z,3.50
2022-11-06T01:06:22.253Z,3.40
2022-11-06T01:08:49.700Z,3.30
2022-11-06T01:11:20.569Z,3.20
2022-11-06T01:13:50.105Z,3.20
2022-11-06T01:16:17.712Z,3.40
2022-11-06T01:18:45.280Z,3.40
2022-11-06T01:21:24.540Z,3.40
2022-11-06T01:23:57.627Z,3.30
2022-11-06T01:26:37.895Z,3.20
2022-11-06T01:29:08.023Z,3.20
2022-11-06T01:31:35.461Z,3.20
2022-11-06T01:34:03.384Z,3.20
2022-11-06T01:36:30.716Z,3.20
2022-11-06T01:39:00.614Z,3.20
2022-11-06T01:41:31.675Z,3.20
2022-11-06T01:44:09.679Z,3.20
2022-11-06T01:46:36.948Z,3.20
2022-11-06T01:49:11.576Z,3.20
2022-11-06T01:51:43.733Z,3.30
2022-11-06T01:54:12.496Z,3.40
2022-11-06T01:56:41.513Z,3.30
2022-11-06T01:59:10.992Z,3.10
2022-11-06T02:01:37.869Z,3.30
2022-11-06T02:04:09.035Z,3.30
2022-11-06T02:06:37.259Z,3.10
2022-11-06T02:09:11.164Z,3.20
2022-11-06T02:12:02.200Z,3.50
2022-11-06T02:14:34.438Z,3.10
2022-11-06T02:17:11.977Z,2.90
2022-11-06T02:19:44.540Z,3.00
2022-11-06T02:22:24.759Z,2.80
2022-11-06T02:25:28.087Z,2.80
2022-11-06T02:28:11.505Z,3.00
2022-11-06T02:30:44.265Z,2.70
2022-11-06T02:33:17.128Z,2.60
2022-11-06T02:35:49.002Z,2.60
2022-11-06T02:38:24.178Z,2.90
2022-11-06T02:40:55.867Z,3.00
2022-11-06T02:43:30.311Z,3.00
2022-11-06T02:46:08.322Z,3.10
2022-11-06T02:48:39.840Z,3.10
2022-11-06T02:51:10.132Z,2.80
2022-11-06T02:53:39.018Z,2.50
2022-11-06T02:56:11.824Z,2.80
2022-11-06T02:58:49.147Z,2.90
2022-11-06T03:01:25.873Z,3.00
2022-11-06T03:03:57.818Z,3.00
2022-11-06T03:06:29.668Z,2.60
2022-11-06T03:09:03.214Z,2.30
2022-11-06T03:11:32.605Z,2.10
2022-11-06T03:14:12.842Z,2.00
2022-11-06T03:16:39.490Z,2.30
2022-11-06T03:19:12.641Z,2.40
2022-11-06T03:21:53.175Z,2.60
2022-11-06T03:24:31.067Z,2.40
2022-11-06T03:27:00.481Z,2.10
2022-11-06T03:29:35.911Z,2.00
2022-11-06T03:32:38.585Z,1.80
2022-11-06T03:35:14.378Z,1.70
2022-11-06T03:38:03.283Z,1.70
2022-11-06T03:40:33.470Z,1.90
2022-11-06T03:43:04.983Z,2.20
2022-11-06T03:45:33.674Z,2.40
2022-11-06T03:48:07.687Z,2.10
2022-11-06T03:50:40.702Z,1.80
2022-11-06T03:53:19.716Z,1.70
2022-11-06T03:55:52.507Z,1.60
2022-11-06T03:58:23.732Z,1.50
2022-11-06T04:00:53.166Z,1.40
2022-11-06T04:03:29.597Z,1.40
2022-11-06T04:06:09.406Z,1.40
2022-11-06T04:08:55.716Z,1.70
2022-11-06T04:11:44.231Z,1.60
2022-11-06T04:14:13.998Z,1.60
2022-11-06T04:16:46.141Z,2.00
2022-11-06T04:19:19.022Z,1.50
2022-11-06T04:21:56.877Z,1.40
2022-11-06T04:25:14.198Z,1.30
2022-11-06T04:28:02.187Z,1.20
2022-11-06T04:30:37.459Z,1.20
2022-11-06T04:33:25.519Z,1.10
2022-11-06T04:36:04.529Z,1.00
2022-11-06T04:38:42.220Z,1.10
2022-11-06T04:41:34.555Z,1.40
2022-11-06T04:44:09.700Z,1.60
2022-11-06T04:47:01.600Z,1.40
2022-11-06T04:49:32.443Z,1.70
2022-11-06T04:52:02.252Z,1.70
2022-11-06T04:54:29.490Z,1.80
2022-11-06T04:57:00.504Z,1.40
2022-11-06T04:59:27.606Z,1.30
2022-11-06T05:01:54.441Z,1.40
2022-11-06T05:04:21.368Z,1.60
2022-11-06T05:06:48.145Z,1.80
2022-11-06T05:09:14.864Z,1.40
2022-11-06T05:11:41.639Z,1.60
2022-11-06T05:14:08.504Z,1.80
2022-11-06T05:16:35.284Z,1.80
2022-11-06T05:19:02.147Z,1.70
2022-11-06T05:21:47.328Z,1.80
2022-11-06T05:24:14.036Z,1.50
2022-11-06T05:26:40.745Z,1.30
2022-11-06T05:29:07.572Z,1.10
2022-11-06T05:31:34.318Z,1.00
2022-11-06T05:34:01.069Z,0.80
2022-11-06T05:36:27.773Z,1.10
2022-11-06T05:38:54.455Z,1.30
2022-11-06T05:41:21.164Z,1.10
2022-11-06T05:43:47.955Z,1.00
2022-11-06T05:46:35.576Z,0.90
2022-11-06T05:49:01.382Z,1.20
2022-11-06T05:51:28.123Z,1.60
2022-11-06T05:53:55.401Z,1.70
2022-11-06T05:56:22.133Z,1.50
2022-11-06T05:58:48.840Z,1.20
2022-11-06T06:01:15.776Z,1.20
2022-11-06T06:03:42.479Z,1.10
2022-11-06T06:06:09.198Z,0.90
2022-11-06T06:08:35.994Z,0.90
2022-11-06T06:11:07.268Z,0.80
2022-11-06T06:13:37.403Z,0.90
2022-11-06T06:16:04.882Z,1.00
2022-11-06T06:18:31.642Z,1.10
2022-11-06T06:20:59.198Z,1.20
2022-11-06T06:23:26.023Z,1.40
2022-11-06T06:25:52.846Z,1.50
2022-11-06T06:28:19.695Z,1.50
2022-11-06T06:30:46.439Z,1.50
2022-11-06T06:33:13.244Z,1.50
2022-11-06T06:35:40.012Z,1.50
2022-11-06T06:38:06.790Z,1.50
2022-11-06T06:40:33.564Z,1.60
2022-11-06T06:43:00.305Z,1.70
2022-11-06T06:45:27.074Z,1.70
2022-11-06T06:47:53.775Z,1.70
2022-11-06T06:50:20.507Z,1.80
2022-11-06T06:52:47.591Z,1.80
2022-11-06T06:55:14.405Z,1.90
2022-11-06T06:57:41.288Z,1.90
2022-11-06T07:00:08.897Z,2.00
2022-11-06T07:02:35.598Z,2.00
2022-11-06T07:05:02.305Z,2.00
2022-11-06T07:07:29.044Z,2.00
2022-11-06T07:09:55.791Z,2.00
2022-11-06T07:12:22.697Z,2.20
2022-11-06T07:14:49.422Z,2.10
2022-11-06T07:17:16.814Z,2.30
2022-11-06T07:19:43.519Z,2.40
2022-11-06T07:22:10.319Z,2.50
2022-11-06T07:24:37.102Z,2.60
2022-11-06T07:27:04.655Z,2.80
2022-11-06T07:29:31.493Z,3.10
2022-11-06T07:31:58.279Z,3.20
2022-11-06T07:34:24.981Z,3.20
2022-11-06T07:36:51.679Z,3.40
2022-11-06T07:39:18.442Z,3.50
2022-11-06T07:41:45.135Z,3.50
2022-11-06T07:44:11.935Z,3.70
2022-11-06T07:46:38.641Z,3.90
2022-11-06T07:49:05.396Z,4.00
2022-11-06T07:51:32.213Z,4.00
2022-11-06T07:53:58.906Z,4.10
2022-11-06T07:56:25.630Z,4.40
2022-11-06T07:58:52.331Z,4.80
2022-11-06T08:01:19.299Z,4.70
2022-11-06T08:03:46.714Z,4.50
2022-11-06T08:06:13.457Z,4.30
2022-11-06T08:08:40.237Z,4.60
2022-11-06T08:11:09.317Z,4.70
2022-11-06T08:13:36.564Z,4.80
2022-11-06T08:16:07.838Z,5.20
2022-11-06T08:18:34.948Z,5.40
2022-11-06T08:21:02.328Z,5.50
2022-11-06T08:23:29.200Z,5.30
2022-11-06T08:26:02.585Z,5.40
2022-11-06T08:28:30.304Z,5.40
2022-11-06T08:30:57.186Z,5.60
2022-11-06T08:33:25.623Z,5.70
2022-11-06T08:35:52.368Z,5.80
2022-11-06T08:38:19.153Z,5.70
2022-11-06T08:40:50.756Z,6.00
2022-11-06T08:43:20.278Z,6.10
2022-11-06T08:45:47.025Z,6.10
2022-11-06T08:48:13.717Z,6.30
2022-11-06T08:50:41.382Z,6.70
2022-11-06T08:53:08.706Z,6.70
2022-11-06T08:55:38.092Z,6.80
2022-11-06T08:58:06.215Z,7.00
2022-11-06T09:00:33.798Z,7.00
2022-11-06T09:03:12.180Z,6.70
2022-11-06T09:05:43.493Z,6.70
2022-11-06T09:08:11.983Z,6.60
2022-11-06T09:10:40.599Z,6.80
2022-11-06T09:13:07.498Z,6.90
2022-11-06T09:15:34.275Z,7.30
2022-11-06T09:18:01.216Z,7.10
2022-11-06T09:20:28.643Z,7.10
2022-11-06T09:22:59.975Z,7.70
2022-11-06T09:25:26.727Z,7.50
2022-11-06T09:27:58.828Z,7.70
2022-11-06T09:30:28.183Z,7.80
2022-11-06T09:32:57.602Z,7.50
2022-11-06T09:35:26.261Z,7.60
2022-11-06T09:37:53.340Z,7.40
2022-11-06T09:40:29.014Z,7.90
2022-11-06T09:43:02.851Z,7.80
2022-11-06T09:45:32.499Z,7.50
2022-11-06T09:48:11.097Z,7.40
2022-11-06T09:50:49.581Z,7.50
2022-11-06T09:53:41.679Z,7.70
2022-11-06T09:56:12.893Z,7.70
2022-11-06T09:58:43.492Z,9.10
2022-11-06T10:01:24.611Z,11.60
2022-11-06T10:04:01.559Z,12.00
2022-11-06T10:06:28.828Z,10.90
2022-11-06T10:09:01.076Z,9.40
2022-11-06T10:11:49.331Z,8.80
2022-11-06T10:14:28.306Z,8.40
2022-11-06T10:17:19.934Z,8.40
2022-11-06T10:19:57.090Z,8.30
2022-11-06T10:22:28.572Z,8.50
2022-11-06T10:25:22.221Z,8.50
2022-11-06T10:28:00.928Z,8.70
2022-11-06T10:30:40.354Z,8.60
2022-11-06T10:33:10.135Z,8.70
2022-11-06T10:35:42.171Z,9.00
2022-11-06T10:38:40.313Z,9.00
2022-11-06T10:41:22.671Z,9.00
2022-11-06T10:44:21.036Z,9.10
2022-11-06T10:46:53.326Z,8.90
2022-11-06T10:49:36.492Z,8.80
2022-11-06T10:52:41.555Z,8.70
2022-11-06T10:55:51.644Z,9.00
2022-11-06T10:58:21.243Z,9.20
2022-11-06T11:00:50.235Z,9.20
2022-11-06T11:03:25.791Z,8.90
2022-11-06T11:05:52.596Z,9.00
2022-11-06T11:08:42.383Z,9.10
2022-11-06T11:11:18.099Z,9.40
2022-11-06T11:13:50.896Z,9.10
2022-11-06T11:16:24.378Z,8.90
2022-11-06T11:18:51.858Z,9.10
2022-11-06T11:21:18.508Z,9.00
2022-11-06T11:24:00.518Z,8.90
2022-11-06T11:26:30.139Z,8.90
2022-11-06T11:28:59.531Z,8.80
2022-11-06T11:31:31.761Z,8.90
2022-11-06T11:34:02.233Z,8.80
2022-11-06T11:37:02.911Z,8.80
2022-11-06T11:39:42.207Z,9.00
2022-11-06T11:42:29.321Z,9.20
2022-11-06T11:45:22.544Z,9.20
2022-11-06T11:47:51.494Z,9.50
2022-11-06T11:50:29.422Z,9.50
2022-11-06T11:53:21.772Z,9.60
2022-11-06T11:55:50.427Z,9.60
2022-11-06T11:58:23.579Z,9.50
2022-11-06T12:00:59.333Z,9.60
2022-11-06T12:03:32.038Z,9.50
2022-11-06T12:06:11.348Z,9.20
2022-11-06T12:08:41.564Z,9.10
2022-11-06T12:11:12.791Z,9.20
2022-11-06T12:13:39.513Z,9.00
2022-11-06T12:16:18.398Z,9.00
2022-11-06T12:18:55.988Z,9.00
2022-11-06T12:21:32.267Z,9.00
2022-11-06T12:24:10.999Z,9.00
2022-11-06T12:26:51.313Z,9.20
2022-11-06T12:29:33.162Z,9.10
2022-11-06T12:32:02.715Z,9.20
2022-11-06T12:34:36.735Z,9.30
2022-11-06T12:37:40.032Z,9.40
2022-11-06T12:40:06.679Z,9.40
2022-11-06T12:42:34.680Z,9.30
2022-11-06T12:45:01.570Z,9.20
2022-11-06T12:47:51.132Z,9.20
2022-11-06T12:50:23.879Z,9.20
2022-11-06T12:53:15.376Z,9.20
2022-11-06T12:55:59.170Z,9.30
2022-11-06T12:58:38.797Z,9.40
2022-11-06T13:01:25.632Z,9.50
2022-11-06T13:03:55.493Z,9.30
2022-11-06T13:06:47.232Z,9.20
2022-11-06T13:09:30.851Z,9.20
2022-11-06T13:12:18.949Z,9.20
2022-11-06T13:15:14.908Z,9.10
2022-11-06T13:17:51.479Z,9.10
2022-11-06T13:20:29.481Z,9.10
2022-11-06T13:23:19.314Z,9.00
2022-11-06T13:26:17.268Z,9.00
2022-11-06T13:28:50.690Z,9.10
2022-11-06T13:31:21.371Z,9.10
2022-11-06T13:33:54.520Z,9.10
2022-11-06T13:36:21.412Z,9.20
2022-11-06T13:38:59.986Z,9.10
2022-11-06T13:41:31.605Z,9.00
2022-11-06T13:44:07.239Z,9.00
2022-11-06T13:46:36.853Z,9.00
2022-11-06T13:49:17.332Z,9.10
2022-11-06T13:51:50.513Z,9.20
2022-11-06T13:54:49.638Z,9.00
2022-11-06T13:57:33.868Z,9.00
2022-11-06T14:00:23.298Z,9.00
2022-11-06T14:03:02.002Z,9.10
2022-11-06T14:05:43.777Z,9.10
2022-11-06T14:08:34.823Z,9.20
2022-11-06T14:11:06.731Z,9.20
2022-11-06T14:13:36.901Z,9.20
2022-11-06T14:16:21.664Z,9.10
2022-11-06T14:19:04.115Z,9.10
2022-11-06T14:21:36.929Z,9.20
2022-11-06T14:24:28.813Z,9.10
2022-11-06T14:26:56.556Z,9.10
2022-11-06T14:29:26.382Z,9.10
2022-11-06T14:32:10.386Z,9.00
2022-11-06T14:34:39.367Z,9.00
2022-11-06T14:37:18.431Z,8.90
2022-11-06T14:39:51.531Z,8.80
2022-11-06T14:42:41.737Z,8.80
2022-11-06T14:45:17.928Z,8.70
2022-11-06T14:47:56.339Z,8.70
2022-11-06T14:50:33.988Z,8.60
2022-11-06T14:53:18.573Z,8.60
2022-11-06T14:56:09.824Z,8.50
2022-11-06T14:58:47.716Z,8.60
2022-11-06T15:01:24.605Z,8.40
2022-11-06T15:04:04.292Z,8.50
2022-11-06T15:06:34.050Z,8.30
2022-11-06T15:09:15.783Z,8.30
2022-11-06T15:11:47.694Z,8.30
2022-11-06T15:14:14.861Z,8.20
2022-11-06T15:16:51.974Z,8.10
2022-11-06T15:19:40.609Z,8.10
2022-11-06T15:22:32.295Z,8.00
2022-11-06T15:25:07.225Z,7.90
2022-11-06T15:27:43.136Z,7.80
2022-11-06T15:30:17.276Z,7.90
2022-11-06T15:32:47.179Z,7.80
2022-11-06T15:35:21.935Z,7.70
2022-11-06T15:38:15.020Z,7.70
2022-11-06T15:40:43.240Z,7.60
2022-11-06T15:43:25.584Z,7.50
2022-11-06T15:46:07.891Z,7.50
2022-11-06T15:48:34.957Z,7.30
2022-11-06T15:51:01.958Z,7.10
2022-11-06T15:53:30.057Z,7.00
2022-11-06T15:56:04.499Z,6.80
2022-11-06T15:58:33.645Z,6.70
2022-11-06T16:01:02.415Z,6.70
2022-11-06T16:03:32.303Z,6.80
2022-11-06T16:06:02.754Z,6.90
2022-11-06T16:08:31.321Z,6.70
2022-11-06T16:10:58.804Z,6.60
2022-11-06T16:13:26.590Z,6.60
2022-11-06T16:16:01.156Z,6.40
2022-11-06T16:18:40.685Z,6.20
2022-11-06T16:21:22.536Z,6.20
2022-11-06T16:24:13.480Z,6.30
2022-11-06T16:26:49.464Z,6.10
2022-11-06T16:29:36.823Z,5.90
2022-11-06T16:32:13.773Z,5.90
2022-11-06T16:34:46.834Z,6.10
2022-11-06T16:37:16.544Z,6.10
2022-11-06T16:39:49.897Z,6.10
2022-11-06T16:42:36.422Z,6.00
2022-11-06T16:45:17.845Z,5.80
2022-11-06T16:48:07.599Z,5.60
2022-11-06T16:50:54.857Z,5.40
2022-11-06T16:53:24.603Z,5.50
2022-11-06T16:56:03.386Z,5.50
2022-11-06T16:58:32.946Z,5.60
2022-11-06T17:01:05.669Z,5.70
2022-11-06T17:03:39.636Z,5.40
2022-11-06T17:06:07.065Z,5.30
2022-11-06T17:08:39.875Z,5.20
2022-11-06T17:11:12.787Z,5.10
2022-11-06T17:13:46.642Z,5.30
2022-11-06T17:16:16.622Z,5.30
2022-11-06T17:18:43.528Z,5.30
2022-11-06T17:21:27.048Z,5.30
2022-11-06T17:23:54.055Z,5.20
2022-11-06T17:26:32.365Z,5.10
2022-11-06T17:28:59.766Z,5.10
2022-11-06T17:31:29.841Z,5.10
2022-11-06T17:33:56.620Z,5.10
2022-11-06T17:36:25.611Z,5.20
2022-11-06T17:38:53.853Z,5.10
2022-11-06T17:41:31.911Z,5.10
2022-11-06T17:44:11.208Z,5.20
2022-11-06T17:46:46.392Z,5.40
2022-11-06T17:49:17.931Z,5.50
2022-11-06T17:52:00.952Z,5.20
2022-11-06T17:54:33.046Z,5.40
2022-11-06T17:57:02.294Z,5.30
2022-11-06T17:59:29.261Z,5.40
2022-11-06T18:01:56.422Z,5.20
2022-11-06T18:04:27.855Z,5.20
2022-11-06T18:06:54.861Z,5.30
2022-11-06T18:09:22.752Z,5.30
2022-11-06T18:11:51.217Z,5.50
2022-11-06T18:14:18.058Z,5.50
2022-11-06T18:16:45.078Z,5.20
2022-11-06T18:19:16.672Z,5.30
2022-11-06T18:21:43.576Z,5.40
2022-11-06T18:24:10.314Z,5.30
2022-11-06T18:26:40.059Z,5.40
2022-11-06T18:29:08.232Z,5.30
2022-11-06T18:31:35.660Z,5.20
2022-11-06T18:34:03.699Z,5.20
2022-11-06T18:36:32.592Z,5.20
2022-11-06T18:39:03.856Z,5.30
2022-11-06T18:41:30.597Z,5.30
2022-11-06T18:44:01.084Z,5.30
2022-11-06T18:46:28.082Z,5.40
2022-11-06T18:48:57.953Z,5.30
2022-11-06T18:51:35.968Z,5.30
2022-11-06T18:54:06.319Z,5.30
2022-11-06T18:56:35.760Z,5.50
2022-11-06T18:59:02.678Z,5.50
2022-11-06T19:01:29.790Z,5.40
2022-11-06T19:03:56.812Z,5.50
2022-11-06T19:06:26.781Z,5.60
2022-11-06T19:08:53.521Z,5.70
2022-11-06T19:11:20.381Z,5.70
2022-11-06T19:13:48.593Z,5.70
2022-11-06T19:16:16.490Z,5.80
2022-11-06T19:18:43.218Z,6.00
2022-11-06T19:21:11.291Z,6.10
2022-11-06T19:23:39.890Z,6.10
2022-11-06T19:26:30.091Z,6.00
2022-11-06T19:28:56.248Z,6.10
2022-11-06T19:31:28.554Z,6.10
2022-11-06T19:33:58.004Z,6.10
2022-11-06T19:36:25.366Z,6.00
2022-11-06T19:38:52.743Z,6.20
2022-11-06T19:41:22.065Z,6.20
2022-11-06T19:43:51.752Z,6.20
2022-11-06T19:46:24.186Z,6.30
2022-11-06T19:48:52.728Z,6.30
2022-11-06T19:51:19.436Z,6.40
2022-11-06T19:53:46.255Z,6.40
2022-11-06T19:56:16.490Z,6.40
2022-11-06T19:58:43.562Z,6.50
2022-11-06T20:01:16.893Z,6.50
2022-11-06T20:03:43.733Z,6.50
2022-11-06T20:06:11.455Z,6.60
2022-11-06T20:08:38.822Z,6.60
2022-11-06T20:11:09.143Z,6.50
2022-11-06T20:13:39.138Z,6.50
2022-11-06T20:16:08.530Z,6.50
2022-11-06T20:18:36.025Z,6.60
2022-11-06T20:21:04.853Z,6.60
2022-11-06T20:23:33.385Z,6.70
2022-11-06T20:26:00.177Z,6.70
2022-11-06T20:28:27.450Z,6.90
2022-11-06T20:30:54.364Z,6.80
2022-11-06T20:33:21.210Z,6.80
2022-11-06T20:35:48.062Z,6.80
2022-11-06T20:38:15.071Z,6.80
2022-11-06T20:40:42.654Z,6.60
2022-11-06T20:43:10.147Z,6.50
2022-11-06T20:45:37.456Z,6.50
2022-11-06T20:48:05.781Z,6.60
2022-11-06T20:50:33.155Z,6.60
2022-11-06T20:53:00.155Z,6.70
2022-11-06T20:55:30.128Z,6.60
2022-11-06T20:57:56.955Z,6.60
2022-11-06T21:00:25.268Z,6.60
2022-11-06T21:02:53.555Z,6.60
2022-11-06T21:05:25.613Z,6.50
2022-11-06T21:07:52.352Z,6.50
2022-11-06T21:10:19.043Z,6.40
2022-11-06T21:12:46.741Z,6.40
2022-11-06T21:15:13.564Z,6.40
2022-11-06T21:17:43.393Z,6.50
2022-11-06T21:20:11.091Z,6.50
2022-11-06T21:22:37.829Z,6.60
2022-11-06T21:25:04.770Z,6.60
2022-11-06T21:27:31.628Z,6.60
2022-11-06T21:29:58.395Z,6.60
2022-11-06T21:32:27.860Z,6.50
2022-11-06T21:34:54.552Z,6.50
2022-11-06T21:37:32.671Z,6.60
2022-11-06T21:40:00.570Z,6.60
2022-11-06T21:42:27.500Z,6.70
2022-11-06T21:44:54.415Z,6.90
2022-11-06T21:47:21.329Z,6.90
2022-11-06T21:49:53.890Z,7.00
2022-11-06T21:52:42.035Z,7.20
2022-11-06T21:55:28.927Z,7.40
2022-11-06T21:57:55.685Z,7.50
2022-11-06T22:00:22.434Z,7.70
2022-11-06T22:02:51.008Z,8.10
2022-11-06T22:05:18.364Z,8.20
2022-11-06T22:07:45.180Z,8.50
2022-11-06T22:10:12.016Z,8.50
2022-11-06T22:12:38.759Z,8.60
2022-11-06T22:15:05.867Z,8.90
2022-11-06T22:17:32.659Z,8.90
2022-11-06T22:19:59.340Z,8.80
2022-11-06T22:22:26.127Z,8.80
2022-11-06T22:24:52.832Z,8.80
2022-11-06T22:27:19.678Z,8.90
2022-11-06T22:29:46.442Z,8.90
2022-11-06T22:32:13.230Z,9.00
2022-11-06T22:34:40.037Z,8.90
2022-11-06T22:37:06.853Z,9.00
2022-11-06T22:39:33.580Z,8.80
2022-11-06T22:42:00.573Z,8.90
2022-11-06T22:44:27.529Z,8.90
2022-11-06T22:46:54.595Z,9.00
2022-11-06T22:49:21.307Z,9.00
2022-11-06T22:51:48.067Z,9.00
2022-11-06T22:54:14.783Z,9.00
2022-11-06T22:56:41.689Z,9.00
2022-11-06T22:59:10.385Z,8.90
2022-11-06T23:01:42.248Z,8.90
2022-11-06T23:04:15.919Z,9.00
2022-11-06T23:06:46.273Z,9.00
2022-11-06T23:09:13.249Z,9.00
2022-11-06T23:11:40.384Z,9.00
2022-11-06T23:14:09.233Z,8.90
2022-11-06T23:16:55.450Z,8.80
2022-11-06T23:19:22.587Z,8.80
2022-11-06T23:21:49.807Z,8.70
2022-11-06T23:24:16.573Z,8.60
2022-11-06T23:26:44.376Z,8.70
2022-11-06T23:29:11.300Z,8.60
2022-11-06T23:31:38.286Z,8.70
2022-11-06T23:34:05.004Z,8.70
2022-11-06T23:36:32.894Z,8.60
2022-11-06T23:38:59.587Z,8.60
2022-11-06T23:41:45.636Z,8.60
2022-11-06T23:44:33.261Z,8.60
2022-11-06T23:47:00.410Z,8.70
2022-11-06T23:49:27.270Z,8.80
2022-11-06T23:51:54.001Z,8.80
2022-11-06T23:54:21.347Z,8.80
2022-11-06T23:56:48.157Z,8.70
2022-11-06T23:59:15.083Z,8.80
